Nur fliegen ist schöner ....

Willkommen beim Flugservice Bautzen GmbH

Wir sind eine nach europäischen Richtlinien zugelassene Flugschule und lizenziertes Luftfahrtunternehmen. Bei uns können sie nicht nur Rundflüge über die Oberlausitz oder Sachsen buchen, sondern in unserer Flugschule selber das Fliegen erlernen. Erfahrene Fluglehrer stehen Ihnen dabei zur Seite.

Wir bieten Ihnen außerdem spezielle Flüge zur Vermessung oder Fotoflüge für Luftbildaufnahmen an. In Zusammenarbeit mit dem Fallschirmsportclub Dresden und dem Cottbuser Fallschirmsportclub setzen wir am Flugplatz Bautzen und Neuhausen Fallschirmspringer ab.
Schauen Sie sich in Ruhe bei uns um und wenn Sie Fragen haben oder weitere Informationen benötigen, scheuen Sie sich nicht Kontakt mit uns aufzunehmen.

Gutscheine für Rundflüge und Tandemsprünge können Sie ganz leicht auch online in unserem Shop erwerben.

Terminkalender

Letzter Monat September 2020 Nächster Monat
Mo Di Mi Do Fr Sa So
week 36 1 2 3 4 5 6
week 37 7 8 9 10 11 12 13
week 38 14 15 16 17 18 19 20
week 39 21 22 23 24 25 26 27
week 40 28 29 30

Flugwetterinfo

[Quelle: ADDS]
METAR
EDDC 251220Z 27012KT 230V300 9999 BKN040 BKN047 15/09 Q0998 NOSIG =
EDDC 251100Z 2512/2612 26005KT 9999 SCT040 BECMG 2600/2603 4000 RA BKN008 TEMPO 2606/2610 BKN004 BECMG 2610/2612 30015G25KT
TAF
EDDC 251100Z 2512/2612 26005KT 9999 SCT040 BECMG 2600/2603 4000 RA BKN008 TEMPO 2606/2610 BKN004 BECMG 2610/2612 30015G25KT =
SR / SS: 04:53 / 16:53 UTC (EDAB Flugplatz Bautzen 2020-09-25)

Öffnungszeiten

des Flugplatzes Bautzen erfahren Sie hier:

flugplatz bautzen logo
Flugservice Bautzen GmbH, Kornmarkt 34, 02625 Bautzen  Telefon: +49 (3591) 211105, Telefax: +49 (3591) 274512, E-Mail:  flugservice(at)fsbautzen.de